Terminal Aerodrome Forecast
Issued by NWS Melbourne, FL

Home | Current Version | Previous Version | Text Only | Print | Product List | Glossary On
Versions: 1 2 3 4 5 6 7 8 9 10 11 12 13 14 15 16
000
FTUS42 KMLB 201700 RRA
TAFMLB
TAF
KMLB 201745Z 2018/2112 VRB03KT P6SM SCT030 BKN040
     FM202000 11008KT P6SM SCT080 BKN120
     FM210600 VRB03KT 5SM BR SCT025 BKN060 OVC120=

USA.gov is the U.S. government's official web portal to all federal, state and local government web resources and services.